sensor_id;sensor_type;location;lat;lon;timestamp;temperature;humidity
78520;SHT31;67818;51.986;5.648;2023-08-21T00:02:22;22.0;66.4
78520;SHT31;67818;51.986;5.648;2023-08-21T00:04:52;22.0;66.2
78520;SHT31;67818;51.986;5.648;2023-08-21T00:07:20;22.0;66.7
78520;SHT31;67818;51.986;5.648;2023-08-21T00:09:51;21.9;67.3
78520;SHT31;67818;51.986;5.648;2023-08-21T00:12:23;21.9;67.6
78520;SHT31;67818;51.986;5.648;2023-08-21T00:14:52;21.9;67.3
78520;SHT31;67818;51.986;5.648;2023-08-21T00:17:20;21.8;67.2
78520;SHT31;67818;51.986;5.648;2023-08-21T00:19:50;21.8;68.3
78520;SHT31;67818;51.986;5.648;2023-08-21T00:22:19;21.7;68.0
78520;SHT31;67818;51.986;5.648;2023-08-21T00:24:47;21.6;67.9
78520;SHT31;67818;51.986;5.648;2023-08-21T00:27:16;21.6;68.4
78520;SHT31;67818;51.986;5.648;2023-08-21T00:29:44;21.5;68.8
78520;SHT31;67818;51.986;5.648;2023-08-21T00:32:13;21.5;68.5
78520;SHT31;67818;51.986;5.648;2023-08-21T00:34:42;21.4;69.7
78520;SHT31;67818;51.986;5.648;2023-08-21T00:37:11;21.4;68.3
78520;SHT31;67818;51.986;5.648;2023-08-21T00:39:40;21.3;68.0
78520;SHT31;67818;51.986;5.648;2023-08-21T00:42:09;21.3;69.1
78520;SHT31;67818;51.986;5.648;2023-08-21T00:44:38;21.2;69.9
78520;SHT31;67818;51.986;5.648;2023-08-21T00:47:07;21.2;69.2
78520;SHT31;67818;51.986;5.648;2023-08-21T00:49:36;21.2;69.0
78520;SHT31;67818;51.986;5.648;2023-08-21T00:52:07;21.2;69.6
78520;SHT31;67818;51.986;5.648;2023-08-21T00:54:37;21.1;69.6
78520;SHT31;67818;51.986;5.648;2023-08-21T00:57:06;21.1;69.4
78520;SHT31;67818;51.986;5.648;2023-08-21T00:59:36;21.1;69.4
78520;SHT31;67818;51.986;5.648;2023-08-21T01:02:06;21.0;70.0
78520;SHT31;67818;51.986;5.648;2023-08-21T01:04:36;20.9;70.0
78520;SHT31;67818;51.986;5.648;2023-08-21T01:07:05;20.9;70.6
78520;SHT31;67818;51.986;5.648;2023-08-21T01:09:45;20.9;70.9
78520;SHT31;67818;51.986;5.648;2023-08-21T01:12:22;20.8;71.1
78520;SHT31;67818;51.986;5.648;2023-08-21T01:14:57;20.8;71.1
78520;SHT31;67818;51.986;5.648;2023-08-21T01:17:29;20.7;71.1
78520;SHT31;67818;51.986;5.648;2023-08-21T01:20:00;20.7;70.9
78520;SHT31;67818;51.986;5.648;2023-08-21T01:22:37;20.6;71.3
78520;SHT31;67818;51.986;5.648;2023-08-21T01:25:07;20.6;71.7
78520;SHT31;67818;51.986;5.648;2023-08-21T01:27:40;20.5;72.2
78520;SHT31;67818;51.986;5.648;2023-08-21T01:30:10;20.5;72.2
78520;SHT31;67818;51.986;5.648;2023-08-21T01:32:43;20.4;72.8
78520;SHT31;67818;51.986;5.648;2023-08-21T01:35:14;20.4;72.6
78520;SHT31;67818;51.986;5.648;2023-08-21T01:37:43;20.3;72.7
78520;SHT31;67818;51.986;5.648;2023-08-21T01:40:22;20.3;73.0
78520;SHT31;67818;51.986;5.648;2023-08-21T01:42:53;20.2;73.1
78520;SHT31;67818;51.986;5.648;2023-08-21T01:45:22;20.2;73.0
78520;SHT31;67818;51.986;5.648;2023-08-21T01:47:51;20.1;73.5
78520;SHT31;67818;51.986;5.648;2023-08-21T01:50:20;20.1;73.7
78520;SHT31;67818;51.986;5.648;2023-08-21T01:52:49;20.1;73.4
78520;SHT31;67818;51.986;5.648;2023-08-21T01:55:18;20.1;73.9
78520;SHT31;67818;51.986;5.648;2023-08-21T01:57:46;20.1;74.2
78520;SHT31;67818;51.986;5.648;2023-08-21T02:00:16;20.1;73.9
78520;SHT31;67818;51.986;5.648;2023-08-21T02:02:45;20.1;73.5
78520;SHT31;67818;51.986;5.648;2023-08-21T02:05:13;20.1;73.5
78520;SHT31;67818;51.986;5.648;2023-08-21T02:07:42;20.2;73.1
78520;SHT31;67818;51.986;5.648;2023-08-21T02:10:11;20.2;73.3
78520;SHT31;67818;51.986;5.648;2023-08-21T02:12:40;20.2;73.5
78520;SHT31;67818;51.986;5.648;2023-08-21T02:15:10;20.2;73.8
78520;SHT31;67818;51.986;5.648;2023-08-21T02:17:39;20.2;73.7
78520;SHT31;67818;51.986;5.648;2023-08-21T02:20:12;20.3;73.6
78520;SHT31;67818;51.986;5.648;2023-08-21T02:22:41;20.3;73.9
78520;SHT31;67818;51.986;5.648;2023-08-21T02:25:10;20.3;73.8
78520;SHT31;67818;51.986;5.648;2023-08-21T02:27:39;20.3;73.1
78520;SHT31;67818;51.986;5.648;2023-08-21T02:30:08;20.3;73.0
78520;SHT31;67818;51.986;5.648;2023-08-21T02:32:37;20.3;72.9
78520;SHT31;67818;51.986;5.648;2023-08-21T02:35:08;20.3;72.7
78520;SHT31;67818;51.986;5.648;2023-08-21T02:37:37;20.3;73.5
78520;SHT31;67818;51.986;5.648;2023-08-21T02:40:07;20.3;73.1
78520;SHT31;67818;51.986;5.648;2023-08-21T02:42:37;20.3;73.5
78520;SHT31;67818;51.986;5.648;2023-08-21T02:45:08;20.2;73.7
78520;SHT31;67818;51.986;5.648;2023-08-21T02:47:38;20.2;73.1
78520;SHT31;67818;51.986;5.648;2023-08-21T02:50:09;20.2;73.1
78520;SHT31;67818;51.986;5.648;2023-08-21T02:52:38;20.2;73.5
78520;SHT31;67818;51.986;5.648;2023-08-21T02:55:08;20.1;73.4
78520;SHT31;67818;51.986;5.648;2023-08-21T02:57:37;20.1;74.3
78520;SHT31;67818;51.986;5.648;2023-08-21T03:00:06;20.1;74.6
78520;SHT31;67818;51.986;5.648;2023-08-21T03:02:36;20.1;74.6
78520;SHT31;67818;51.986;5.648;2023-08-21T03:05:05;20.1;74.0
78520;SHT31;67818;51.986;5.648;2023-08-21T03:07:35;20.1;74.5
78520;SHT31;67818;51.986;5.648;2023-08-21T03:10:06;20.1;74.0
78520;SHT31;67818;51.986;5.648;2023-08-21T03:12:35;20.1;74.1
78520;SHT31;67818;51.986;5.648;2023-08-21T03:15:05;20.1;74.2
78520;SHT31;67818;51.986;5.648;2023-08-21T03:17:34;20.1;73.7
78520;SHT31;67818;51.986;5.648;2023-08-21T03:20:03;20.2;73.9
78520;SHT31;67818;51.986;5.648;2023-08-21T03:22:33;20.2;74.1
78520;SHT31;67818;51.986;5.648;2023-08-21T03:25:03;20.2;74.1
78520;SHT31;67818;51.986;5.648;2023-08-21T03:27:32;20.2;73.5
78520;SHT31;67818;51.986;5.648;2023-08-21T03:30:06;20.2;73.4
78520;SHT31;67818;51.986;5.648;2023-08-21T03:32:37;20.3;73.6
78520;SHT31;67818;51.986;5.648;2023-08-21T03:35:06;20.3;73.9
78520;SHT31;67818;51.986;5.648;2023-08-21T03:37:36;20.3;74.3
78520;SHT31;67818;51.986;5.648;2023-08-21T03:40:06;20.3;74.1
78520;SHT31;67818;51.986;5.648;2023-08-21T03:42:34;20.3;73.2
78520;SHT31;67818;51.986;5.648;2023-08-21T03:45:07;20.3;73.1
78520;SHT31;67818;51.986;5.648;2023-08-21T03:47:36;20.3;72.9
78520;SHT31;67818;51.986;5.648;2023-08-21T03:50:06;20.3;73.2
78520;SHT31;67818;51.986;5.648;2023-08-21T03:52:35;20.3;73.1
78520;SHT31;67818;51.986;5.648;2023-08-21T03:55:04;20.3;73.3
78520;SHT31;67818;51.986;5.648;2023-08-21T03:57:36;20.2;73.2
78520;SHT31;67818;51.986;5.648;2023-08-21T04:00:08;20.2;73.4
78520;SHT31;67818;51.986;5.648;2023-08-21T04:02:38;20.1;73.1
78520;SHT31;67818;51.986;5.648;2023-08-21T04:05:07;20.1;73.3
78520;SHT31;67818;51.986;5.648;2023-08-21T04:07:37;20.0;73.9
78520;SHT31;67818;51.986;5.648;2023-08-21T04:10:07;20.0;74.2
78520;SHT31;67818;51.986;5.648;2023-08-21T04:12:36;20.0;73.6
78520;SHT31;67818;51.986;5.648;2023-08-21T04:15:05;20.0;74.3
78520;SHT31;67818;51.986;5.648;2023-08-21T04:17:36;20.0;74.3
78520;SHT31;67818;51.986;5.648;2023-08-21T04:20:06;20.0;74.1
78520;SHT31;67818;51.986;5.648;2023-08-21T04:22:35;20.0;75.0
78520;SHT31;67818;51.986;5.648;2023-08-21T04:25:04;20.0;74.6
78520;SHT31;67818;51.986;5.648;2023-08-21T04:27:33;20.0;74.2
78520;SHT31;67818;51.986;5.648;2023-08-21T04:30:02;20.0;73.7
78520;SHT31;67818;51.986;5.648;2023-08-21T04:32:31;20.0;74.2
78520;SHT31;67818;51.986;5.648;2023-08-21T04:35:00;20.0;74.3
78520;SHT31;67818;51.986;5.648;2023-08-21T04:37:29;20.0;74.5
78520;SHT31;67818;51.986;5.648;2023-08-21T04:39:59;19.9;74.6
78520;SHT31;67818;51.986;5.648;2023-08-21T04:42:28;19.9;74.7
78520;SHT31;67818;51.986;5.648;2023-08-21T04:44:56;19.9;75.2
78520;SHT31;67818;51.986;5.648;2023-08-21T04:47:26;19.8;75.7
78520;SHT31;67818;51.986;5.648;2023-08-21T04:49:56;19.8;75.8
78520;SHT31;67818;51.986;5.648;2023-08-21T04:52:25;19.8;76.2
78520;SHT31;67818;51.986;5.648;2023-08-21T04:54:54;19.8;75.6
78520;SHT31;67818;51.986;5.648;2023-08-21T04:57:25;19.9;75.9
78520;SHT31;67818;51.986;5.648;2023-08-21T04:59:53;19.9;75.7
78520;SHT31;67818;51.986;5.648;2023-08-21T05:02:22;19.9;75.9
78520;SHT31;67818;51.986;5.648;2023-08-21T05:04:51;20.0;75.7
78520;SHT31;67818;51.986;5.648;2023-08-21T05:07:21;20.0;75.5
78520;SHT31;67818;51.986;5.648;2023-08-21T05:09:50;20.0;74.7
78520;SHT31;67818;51.986;5.648;2023-08-21T05:12:18;20.0;74.2
78520;SHT31;67818;51.986;5.648;2023-08-21T05:14:47;20.0;74.1
78520;SHT31;67818;51.986;5.648;2023-08-21T05:17:15;20.0;74.1
78520;SHT31;67818;51.986;5.648;2023-08-21T05:19:44;20.0;74.3
78520;SHT31;67818;51.986;5.648;2023-08-21T05:22:12;20.0;74.4
78520;SHT31;67818;51.986;5.648;2023-08-21T05:24:41;20.0;74.8
78520;SHT31;67818;51.986;5.648;2023-08-21T05:27:09;20.0;75.1
78520;SHT31;67818;51.986;5.648;2023-08-21T05:29:38;20.0;75.4
78520;SHT31;67818;51.986;5.648;2023-08-21T05:32:07;20.0;75.1
78520;SHT31;67818;51.986;5.648;2023-08-21T05:34:38;20.1;74.9
78520;SHT31;67818;51.986;5.648;2023-08-21T05:37:06;20.1;75.7
78520;SHT31;67818;51.986;5.648;2023-08-21T05:39:35;20.2;75.3
78520;SHT31;67818;51.986;5.648;2023-08-21T05:42:04;20.2;75.8
78520;SHT31;67818;51.986;5.648;2023-08-21T05:44:33;20.3;74.9
78520;SHT31;67818;51.986;5.648;2023-08-21T05:47:04;20.4;74.3
78520;SHT31;67818;51.986;5.648;2023-08-21T05:49:34;20.5;73.5
78520;SHT31;67818;51.986;5.648;2023-08-21T05:52:03;20.5;74.2
78520;SHT31;67818;51.986;5.648;2023-08-21T05:54:33;20.6;74.2
78520;SHT31;67818;51.986;5.648;2023-08-21T05:57:02;20.6;74.6
78520;SHT31;67818;51.986;5.648;2023-08-21T05:59:33;20.6;73.2
78520;SHT31;67818;51.986;5.648;2023-08-21T06:02:02;20.7;73.8
78520;SHT31;67818;51.986;5.648;2023-08-21T06:04:30;20.7;73.1
78520;SHT31;67818;51.986;5.648;2023-08-21T06:06:59;20.8;73.1
78520;SHT31;67818;51.986;5.648;2023-08-21T06:09:29;20.8;72.4
78520;SHT31;67818;51.986;5.648;2023-08-21T06:11:58;20.9;73.0
78520;SHT31;67818;51.986;5.648;2023-08-21T06:14:30;20.9;71.9
78520;SHT31;67818;51.986;5.648;2023-08-21T06:17:04;21.0;72.2
78520;SHT31;67818;51.986;5.648;2023-08-21T06:19:33;21.2;72.3
78520;SHT31;67818;51.986;5.648;2023-08-21T06:22:03;21.3;72.3
78520;SHT31;67818;51.986;5.648;2023-08-21T06:24:31;21.6;70.2
78520;SHT31;67818;51.986;5.648;2023-08-21T06:27:00;21.9;70.1
78520;SHT31;67818;51.986;5.648;2023-08-21T06:29:29;22.2;68.1
78520;SHT31;67818;51.986;5.648;2023-08-21T06:32:03;22.5;66.4
78520;SHT31;67818;51.986;5.648;2023-08-21T06:34:32;22.6;66.7
78520;SHT31;67818;51.986;5.648;2023-08-21T06:37:00;22.7;66.9
78520;SHT31;67818;51.986;5.648;2023-08-21T06:39:31;22.8;66.7
78520;SHT31;67818;51.986;5.648;2023-08-21T06:41:59;22.9;66.5
78520;SHT31;67818;51.986;5.648;2023-08-21T06:44:29;23.0;65.8
78520;SHT31;67818;51.986;5.648;2023-08-21T06:46:57;23.2;65.3
78520;SHT31;67818;51.986;5.648;2023-08-21T06:49:28;23.4;64.5
78520;SHT31;67818;51.986;5.648;2023-08-21T06:51:58;23.5;63.9
78520;SHT31;67818;51.986;5.648;2023-08-21T06:54:28;23.5;65.6
78520;SHT31;67818;51.986;5.648;2023-08-21T06:56:58;23.6;64.7
78520;SHT31;67818;51.986;5.648;2023-08-21T06:59:27;23.7;64.1
78520;SHT31;67818;51.986;5.648;2023-08-21T07:01:55;23.8;60.9
78520;SHT31;67818;51.986;5.648;2023-08-21T07:04:24;23.9;63.6
78520;SHT31;67818;51.986;5.648;2023-08-21T07:06:53;24.0;61.5
78520;SHT31;67818;51.986;5.648;2023-08-21T07:09:22;24.1;60.7
78520;SHT31;67818;51.986;5.648;2023-08-21T07:11:57;24.3;61.5
78520;SHT31;67818;51.986;5.648;2023-08-21T07:14:28;24.4;60.0
78520;SHT31;67818;51.986;5.648;2023-08-21T07:16:57;24.5;54.8
78520;SHT31;67818;51.986;5.648;2023-08-21T07:19:28;24.6;55.7
78520;SHT31;67818;51.986;5.648;2023-08-21T07:21:58;24.6;58.2
78520;SHT31;67818;51.986;5.648;2023-08-21T07:24:27;24.6;59.6
78520;SHT31;67818;51.986;5.648;2023-08-21T07:26:55;24.7;56.8
78520;SHT31;67818;51.986;5.648;2023-08-21T07:29:27;24.7;58.1
78520;SHT31;67818;51.986;5.648;2023-08-21T07:31:55;24.7;57.2
78520;SHT31;67818;51.986;5.648;2023-08-21T07:34:24;24.7;56.1
78520;SHT31;67818;51.986;5.648;2023-08-21T07:36:53;24.7;54.6
78520;SHT31;67818;51.986;5.648;2023-08-21T07:39:23;24.7;55.8
78520;SHT31;67818;51.986;5.648;2023-08-21T07:41:52;24.6;57.6
78520;SHT31;67818;51.986;5.648;2023-08-21T07:44:21;24.6;55.8
78520;SHT31;67818;51.986;5.648;2023-08-21T07:46:51;24.6;56.7
78520;SHT31;67818;51.986;5.648;2023-08-21T07:49:20;24.7;56.5
78520;SHT31;67818;51.986;5.648;2023-08-21T07:51:48;24.7;57.4
78520;SHT31;67818;51.986;5.648;2023-08-21T07:54:19;24.8;55.3
78520;SHT31;67818;51.986;5.648;2023-08-21T07:56:49;24.8;55.7
78520;SHT31;67818;51.986;5.648;2023-08-21T07:59:19;24.9;54.6
78520;SHT31;67818;51.986;5.648;2023-08-21T08:01:50;24.9;56.7
78520;SHT31;67818;51.986;5.648;2023-08-21T08:04:22;25.0;53.7
78520;SHT31;67818;51.986;5.648;2023-08-21T08:06:52;25.0;53.3
78520;SHT31;67818;51.986;5.648;2023-08-21T08:09:22;25.0;54.6
78520;SHT31;67818;51.986;5.648;2023-08-21T08:11:51;25.0;54.8
78520;SHT31;67818;51.986;5.648;2023-08-21T08:14:20;25.0;54.5
78520;SHT31;67818;51.986;5.648;2023-08-21T08:16:48;24.9;55.1
78520;SHT31;67818;51.986;5.648;2023-08-21T08:19:17;24.9;55.5
78520;SHT31;67818;51.986;5.648;2023-08-21T08:21:46;24.8;55.5
78520;SHT31;67818;51.986;5.648;2023-08-21T08:24:14;24.7;54.8
78520;SHT31;67818;51.986;5.648;2023-08-21T08:26:43;24.7;55.2
78520;SHT31;67818;51.986;5.648;2023-08-21T08:29:15;24.6;55.7
78520;SHT31;67818;51.986;5.648;2023-08-21T08:31:44;24.6;55.1
78520;SHT31;67818;51.986;5.648;2023-08-21T08:34:13;24.6;55.8
78520;SHT31;67818;51.986;5.648;2023-08-21T08:36:45;24.7;55.8
78520;SHT31;67818;51.986;5.648;2023-08-21T08:39:14;24.8;54.5
78520;SHT31;67818;51.986;5.648;2023-08-21T08:41:50;24.9;54.6
78520;SHT31;67818;51.986;5.648;2023-08-21T08:44:26;24.9;54.5
78520;SHT31;67818;51.986;5.648;2023-08-21T08:46:56;25.0;53.5
78520;SHT31;67818;51.986;5.648;2023-08-21T08:49:36;25.0;54.0
78520;SHT31;67818;51.986;5.648;2023-08-21T08:52:07;25.2;54.0
78520;SHT31;67818;51.986;5.648;2023-08-21T08:54:42;25.4;54.3
78520;SHT31;67818;51.986;5.648;2023-08-21T08:57:12;25.6;53.5
78520;SHT31;67818;51.986;5.648;2023-08-21T08:59:44;25.8;53.3
78520;SHT31;67818;51.986;5.648;2023-08-21T09:02:15;25.9;53.5
78520;SHT31;67818;51.986;5.648;2023-08-21T09:04:48;26.1;52.0
78520;SHT31;67818;51.986;5.648;2023-08-21T09:07:18;26.2;52.4
78520;SHT31;67818;51.986;5.648;2023-08-21T09:09:50;26.3;52.7
78520;SHT31;67818;51.986;5.648;2023-08-21T09:12:20;26.4;51.8
78520;SHT31;67818;51.986;5.648;2023-08-21T09:14:51;26.4;50.3
78520;SHT31;67818;51.986;5.648;2023-08-21T09:17:22;26.5;48.9
78520;SHT31;67818;51.986;5.648;2023-08-21T09:19:50;26.4;50.4
78520;SHT31;67818;51.986;5.648;2023-08-21T09:22:19;26.3;52.1
78520;SHT31;67818;51.986;5.648;2023-08-21T09:25:05;26.2;50.3
78520;SHT31;67818;51.986;5.648;2023-08-21T09:27:38;26.1;51.6
78520;SHT31;67818;51.986;5.648;2023-08-21T09:30:11;26.0;51.7
78520;SHT31;67818;51.986;5.648;2023-08-21T09:32:54;26.0;52.1
78520;SHT31;67818;51.986;5.648;2023-08-21T09:35:27;25.9;50.8
78520;SHT31;67818;51.986;5.648;2023-08-21T09:37:55;25.9;51.8
78520;SHT31;67818;51.986;5.648;2023-08-21T09:40:26;25.8;53.8
78520;SHT31;67818;51.986;5.648;2023-08-21T09:42:56;25.8;52.8
78520;SHT31;67818;51.986;5.648;2023-08-21T09:45:29;25.8;55.0
78520;SHT31;67818;51.986;5.648;2023-08-21T09:48:00;25.8;54.7
78520;SHT31;67818;51.986;5.648;2023-08-21T09:50:32;25.8;54.4
78520;SHT31;67818;51.986;5.648;2023-08-21T09:53:05;25.8;53.1
78520;SHT31;67818;51.986;5.648;2023-08-21T09:55:39;25.9;54.2
78520;SHT31;67818;51.986;5.648;2023-08-21T09:58:08;25.9;53.6
78520;SHT31;67818;51.986;5.648;2023-08-21T10:00:43;25.9;53.1
78520;SHT31;67818;51.986;5.648;2023-08-21T10:03:17;26.0;54.6
78520;SHT31;67818;51.986;5.648;2023-08-21T10:05:50;26.1;51.7
78520;SHT31;67818;51.986;5.648;2023-08-21T10:08:32;26.2;51.7
78520;SHT31;67818;51.986;5.648;2023-08-21T10:11:10;26.3;51.5
78520;SHT31;67818;51.986;5.648;2023-08-21T10:13:41;26.4;51.5
78520;SHT31;67818;51.986;5.648;2023-08-21T10:16:14;26.5;51.5
78520;SHT31;67818;51.986;5.648;2023-08-21T10:18:45;26.6;52.6
78520;SHT31;67818;51.986;5.648;2023-08-21T10:21:17;26.6;52.2
78520;SHT31;67818;51.986;5.648;2023-08-21T10:23:57;26.6;50.0
78520;SHT31;67818;51.986;5.648;2023-08-21T10:26:30;26.7;49.7
78520;SHT31;67818;51.986;5.648;2023-08-21T10:29:02;26.7;49.8
78520;SHT31;67818;51.986;5.648;2023-08-21T10:31:35;26.7;49.3
78520;SHT31;67818;51.986;5.648;2023-08-21T10:34:07;26.7;48.7
78520;SHT31;67818;51.986;5.648;2023-08-21T10:37:19;26.7;48.5
78520;SHT31;67818;51.986;5.648;2023-08-21T10:40:01;26.7;47.3
78520;SHT31;67818;51.986;5.648;2023-08-21T10:42:40;26.6;51.2
78520;SHT31;67818;51.986;5.648;2023-08-21T10:45:14;26.6;48.6
78520;SHT31;67818;51.986;5.648;2023-08-21T10:47:42;26.7;49.8
78520;SHT31;67818;51.986;5.648;2023-08-21T10:50:17;26.7;49.2
78520;SHT31;67818;51.986;5.648;2023-08-21T10:52:46;26.7;47.9
78520;SHT31;67818;51.986;5.648;2023-08-21T10:55:16;26.7;49.2
78520;SHT31;67818;51.986;5.648;2023-08-21T10:57:49;26.8;49.6
78520;SHT31;67818;51.986;5.648;2023-08-21T11:00:21;26.8;48.1
78520;SHT31;67818;51.986;5.648;2023-08-21T11:02:51;26.8;49.5
78520;SHT31;67818;51.986;5.648;2023-08-21T11:05:19;26.9;50.0
78520;SHT31;67818;51.986;5.648;2023-08-21T11:07:49;26.9;50.0
78520;SHT31;67818;51.986;5.648;2023-08-21T11:10:22;27.0;46.6
78520;SHT31;67818;51.986;5.648;2023-08-21T11:12:53;27.0;45.2
78520;SHT31;67818;51.986;5.648;2023-08-21T11:15:24;27.1;44.9
78520;SHT31;67818;51.986;5.648;2023-08-21T11:17:56;27.1;46.1
78520;SHT31;67818;51.986;5.648;2023-08-21T11:20:30;27.1;44.8
78520;SHT31;67818;51.986;5.648;2023-08-21T11:23:03;27.2;46.6
78520;SHT31;67818;51.986;5.648;2023-08-21T11:25:37;27.2;44.5
78520;SHT31;67818;51.986;5.648;2023-08-21T11:28:07;27.3;44.6
78520;SHT31;67818;51.986;5.648;2023-08-21T11:30:40;27.3;44.5
78520;SHT31;67818;51.986;5.648;2023-08-21T11:33:12;27.3;46.0
78520;SHT31;67818;51.986;5.648;2023-08-21T11:35:41;27.3;48.2
78520;SHT31;67818;51.986;5.648;2023-08-21T11:38:17;27.4;45.2
78520;SHT31;67818;51.986;5.648;2023-08-21T11:40:53;27.5;45.0
78520;SHT31;67818;51.986;5.648;2023-08-21T11:43:38;27.5;48.0
78520;SHT31;67818;51.986;5.648;2023-08-21T11:46:08;27.7;47.8
78520;SHT31;67818;51.986;5.648;2023-08-21T11:48:41;27.8;46.5
78520;SHT31;67818;51.986;5.648;2023-08-21T11:51:14;27.9;46.5
78520;SHT31;67818;51.986;5.648;2023-08-21T11:53:47;28.1;45.5
78520;SHT31;67818;51.986;5.648;2023-08-21T11:56:18;28.2;47.6
78520;SHT31;67818;51.986;5.648;2023-08-21T11:58:47;28.5;49.0
78520;SHT31;67818;51.986;5.648;2023-08-21T12:01:19;29.0;45.4
78520;SHT31;67818;51.986;5.648;2023-08-21T12:03:49;29.6;45.4
78520;SHT31;67818;51.986;5.648;2023-08-21T12:06:26;30.2;44.3
78520;SHT31;67818;51.986;5.648;2023-08-21T12:08:59;30.6;42.2
78520;SHT31;67818;51.986;5.648;2023-08-21T12:11:39;30.8;40.8
78520;SHT31;67818;51.986;5.648;2023-08-21T12:14:08;30.9;39.9
78520;SHT31;67818;51.986;5.648;2023-08-21T12:16:38;31.0;40.0
78520;SHT31;67818;51.986;5.648;2023-08-21T12:19:08;31.1;43.4
78520;SHT31;67818;51.986;5.648;2023-08-21T12:21:39;31.3;40.3
78520;SHT31;67818;51.986;5.648;2023-08-21T12:24:13;31.6;39.7
78520;SHT31;67818;51.986;5.648;2023-08-21T12:26:46;31.8;38.3
78520;SHT31;67818;51.986;5.648;2023-08-21T12:29:16;32.0;39.1
78520;SHT31;67818;51.986;5.648;2023-08-21T12:31:47;32.1;37.7
78520;SHT31;67818;51.986;5.648;2023-08-21T12:34:19;32.2;38.4
78520;SHT31;67818;51.986;5.648;2023-08-21T12:36:52;32.3;36.9
78520;SHT31;67818;51.986;5.648;2023-08-21T12:39:22;32.3;37.8
78520;SHT31;67818;51.986;5.648;2023-08-21T12:41:53;32.4;39.4
78520;SHT31;67818;51.986;5.648;2023-08-21T12:44:24;32.4;36.5
78520;SHT31;67818;51.986;5.648;2023-08-21T12:47:00;32.5;33.9
78520;SHT31;67818;51.986;5.648;2023-08-21T12:49:29;32.6;36.4
78520;SHT31;67818;51.986;5.648;2023-08-21T12:51:59;32.7;35.4
78520;SHT31;67818;51.986;5.648;2023-08-21T12:54:27;32.8;35.2
78520;SHT31;67818;51.986;5.648;2023-08-21T12:56:57;32.9;32.6
78520;SHT31;67818;51.986;5.648;2023-08-21T12:59:26;33.0;33.8
78520;SHT31;67818;51.986;5.648;2023-08-21T13:02:02;33.0;32.8
78520;SHT31;67818;51.986;5.648;2023-08-21T13:04:35;33.2;34.3
78520;SHT31;67818;51.986;5.648;2023-08-21T13:07:08;33.3;37.1
78520;SHT31;67818;51.986;5.648;2023-08-21T13:09:38;33.5;35.2
78520;SHT31;67818;51.986;5.648;2023-08-21T13:12:07;33.7;34.3
78520;SHT31;67818;51.986;5.648;2023-08-21T13:14:36;33.8;31.4
78520;SHT31;67818;51.986;5.648;2023-08-21T13:17:05;34.0;33.4
78520;SHT31;67818;51.986;5.648;2023-08-21T13:19:34;34.0;33.5
78520;SHT31;67818;51.986;5.648;2023-08-21T13:22:03;34.0;34.2
78520;SHT31;67818;51.986;5.648;2023-08-21T13:24:32;34.0;34.9
78520;SHT31;67818;51.986;5.648;2023-08-21T13:27:01;34.0;36.2
78520;SHT31;67818;51.986;5.648;2023-08-21T13:29:30;33.9;35.9
78520;SHT31;67818;51.986;5.648;2023-08-21T13:31:58;33.9;36.0
78520;SHT31;67818;51.986;5.648;2023-08-21T13:34:27;33.9;33.5
78520;SHT31;67818;51.986;5.648;2023-08-21T13:36:56;33.9;34.0
78520;SHT31;67818;51.986;5.648;2023-08-21T13:39:25;33.9;34.7
78520;SHT31;67818;51.986;5.648;2023-08-21T13:41:58;33.9;33.9
78520;SHT31;67818;51.986;5.648;2023-08-21T13:44:27;33.9;33.6
78520;SHT31;67818;51.986;5.648;2023-08-21T13:46:55;33.9;33.8
78520;SHT31;67818;51.986;5.648;2023-08-21T13:49:23;33.9;33.7
78520;SHT31;67818;51.986;5.648;2023-08-21T13:51:52;33.8;33.4
78520;SHT31;67818;51.986;5.648;2023-08-21T13:54:22;33.8;33.5
78520;SHT31;67818;51.986;5.648;2023-08-21T13:56:50;33.8;34.0
78520;SHT31;67818;51.986;5.648;2023-08-21T13:59:23;33.7;33.5
78520;SHT31;67818;51.986;5.648;2023-08-21T14:01:51;33.7;33.4
78520;SHT31;67818;51.986;5.648;2023-08-21T14:04:20;33.7;34.4
78520;SHT31;67818;51.986;5.648;2023-08-21T14:06:49;33.7;35.5
78520;SHT31;67818;51.986;5.648;2023-08-21T14:09:17;33.6;35.0
78520;SHT31;67818;51.986;5.648;2023-08-21T14:11:47;33.6;35.6
78520;SHT31;67818;51.986;5.648;2023-08-21T14:14:15;33.5;35.2
78520;SHT31;67818;51.986;5.648;2023-08-21T14:16:48;33.5;35.5
78520;SHT31;67818;51.986;5.648;2023-08-21T14:19:16;33.5;34.7
78520;SHT31;67818;51.986;5.648;2023-08-21T14:21:45;33.5;35.9
78520;SHT31;67818;51.986;5.648;2023-08-21T14:24:13;33.5;33.3
78520;SHT31;67818;51.986;5.648;2023-08-21T14:26:43;33.4;33.8
78520;SHT31;67818;51.986;5.648;2023-08-21T14:29:14;33.3;36.2
78520;SHT31;67818;51.986;5.648;2023-08-21T14:31:43;33.2;34.6
78520;SHT31;67818;51.986;5.648;2023-08-21T14:34:13;33.0;34.2
78520;SHT31;67818;51.986;5.648;2023-08-21T14:36:43;32.8;33.3
78520;SHT31;67818;51.986;5.648;2023-08-21T14:39:12;32.6;34.1
78520;SHT31;67818;51.986;5.648;2023-08-21T14:41:53;32.3;33.6
78520;SHT31;67818;51.986;5.648;2023-08-21T14:44:23;32.0;33.7
78520;SHT31;67818;51.986;5.648;2023-08-21T14:46:54;31.8;35.2
78520;SHT31;67818;51.986;5.648;2023-08-21T14:49:28;31.6;35.1
78520;SHT31;67818;51.986;5.648;2023-08-21T14:52:02;31.4;35.0
78520;SHT31;67818;51.986;5.648;2023-08-21T14:54:36;31.1;33.7
78520;SHT31;67818;51.986;5.648;2023-08-21T14:57:06;30.9;34.4
78520;SHT31;67818;51.986;5.648;2023-08-21T14:59:37;30.7;34.4
78520;SHT31;67818;51.986;5.648;2023-08-21T15:02:08;30.5;36.3
78520;SHT31;67818;51.986;5.648;2023-08-21T15:04:39;30.3;35.2
78520;SHT31;67818;51.986;5.648;2023-08-21T15:09:36;30.0;37.1
78520;SHT31;67818;51.986;5.648;2023-08-21T15:12:07;29.8;37.1
78520;SHT31;67818;51.986;5.648;2023-08-21T15:14:36;29.5;38.9
78520;SHT31;67818;51.986;5.648;2023-08-21T15:17:09;29.3;37.4
78520;SHT31;67818;51.986;5.648;2023-08-21T15:19:41;29.2;39.3
78520;SHT31;67818;51.986;5.648;2023-08-21T15:22:15;29.1;39.0
78520;SHT31;67818;51.986;5.648;2023-08-21T15:24:43;28.9;39.3
78520;SHT31;67818;51.986;5.648;2023-08-21T15:27:13;28.8;39.2
78520;SHT31;67818;51.986;5.648;2023-08-21T15:29:43;28.7;39.6
78520;SHT31;67818;51.986;5.648;2023-08-21T15:32:12;28.7;40.2
78520;SHT31;67818;51.986;5.648;2023-08-21T15:34:41;28.7;39.7
78520;SHT31;67818;51.986;5.648;2023-08-21T15:37:14;28.6;40.1
78520;SHT31;67818;51.986;5.648;2023-08-21T15:39:44;28.6;40.9
78520;SHT31;67818;51.986;5.648;2023-08-21T15:42:12;28.5;41.1
78520;SHT31;67818;51.986;5.648;2023-08-21T15:44:41;28.5;41.9
78520;SHT31;67818;51.986;5.648;2023-08-21T15:47:10;28.4;41.6
78520;SHT31;67818;51.986;5.648;2023-08-21T15:49:40;28.4;40.8
78520;SHT31;67818;51.986;5.648;2023-08-21T15:52:08;28.3;40.8
78520;SHT31;67818;51.986;5.648;2023-08-21T15:54:38;28.3;43.0
78520;SHT31;67818;51.986;5.648;2023-08-21T15:57:06;28.2;41.5
78520;SHT31;67818;51.986;5.648;2023-08-21T15:59:36;28.3;41.7
78520;SHT31;67818;51.986;5.648;2023-08-21T16:02:05;28.2;41.9
78520;SHT31;67818;51.986;5.648;2023-08-21T16:04:34;28.2;40.2
78520;SHT31;67818;51.986;5.648;2023-08-21T16:07:03;28.2;41.4
78520;SHT31;67818;51.986;5.648;2023-08-21T16:09:32;28.1;41.5
78520;SHT31;67818;51.986;5.648;2023-08-21T16:12:02;28.1;40.7
78520;SHT31;67818;51.986;5.648;2023-08-21T16:14:33;28.1;42.5
78520;SHT31;67818;51.986;5.648;2023-08-21T16:17:02;28.0;41.6
78520;SHT31;67818;51.986;5.648;2023-08-21T16:19:34;28.0;43.8
78520;SHT31;67818;51.986;5.648;2023-08-21T16:22:03;28.0;42.5
78520;SHT31;67818;51.986;5.648;2023-08-21T16:24:33;28.0;42.1
78520;SHT31;67818;51.986;5.648;2023-08-21T16:27:01;28.0;42.2